sensor_id;sensor_type;location;lat;lon;timestamp;temperature;humidity
41427;DHT22;27171;51.812;19.514;2022-10-16T00:01:42;13.50;99.90
41427;DHT22;27171;51.812;19.514;2022-10-16T00:04:43;13.50;99.90
41427;DHT22;27171;51.812;19.514;2022-10-16T00:07:44;13.50;99.90
41427;DHT22;27171;51.812;19.514;2022-10-16T00:10:45;13.40;99.90
41427;DHT22;27171;51.812;19.514;2022-10-16T00:13:47;13.40;99.90
41427;DHT22;27171;51.812;19.514;2022-10-16T00:16:49;13.40;99.90
41427;DHT22;27171;51.812;19.514;2022-10-16T00:19:50;13.40;99.90
41427;DHT22;27171;51.812;19.514;2022-10-16T00:23:05;13.40;99.90
41427;DHT22;27171;51.812;19.514;2022-10-16T00:26:11;13.40;99.90
41427;DHT22;27171;51.812;19.514;2022-10-16T00:29:13;13.30;99.90
41427;DHT22;27171;51.812;19.514;2022-10-16T00:32:14;13.30;99.90
41427;DHT22;27171;51.812;19.514;2022-10-16T00:35:15;13.20;99.90
41427;DHT22;27171;51.812;19.514;2022-10-16T00:38:17;13.10;99.90
41427;DHT22;27171;51.812;19.514;2022-10-16T00:41:18;13.10;99.90
41427;DHT22;27171;51.812;19.514;2022-10-16T00:47:50;12.90;99.90
41427;DHT22;27171;51.812;19.514;2022-10-16T00:50:52;12.80;99.90
41427;DHT22;27171;51.812;19.514;2022-10-16T00:53:55;12.80;99.90
41427;DHT22;27171;51.812;19.514;2022-10-16T00:56:58;12.70;99.90
41427;DHT22;27171;51.812;19.514;2022-10-16T01:00:00;12.70;99.90
41427;DHT22;27171;51.812;19.514;2022-10-16T01:03:21;12.70;99.90
41427;DHT22;27171;51.812;19.514;2022-10-16T01:09:44;12.50;99.90
41427;DHT22;27171;51.812;19.514;2022-10-16T01:12:59;12.40;99.90
41427;DHT22;27171;51.812;19.514;2022-10-16T01:16:13;12.40;99.90
41427;DHT22;27171;51.812;19.514;2022-10-16T01:29:13;12.20;99.90
41427;DHT22;27171;51.812;19.514;2022-10-16T01:32:31;12.20;99.90
41427;DHT22;27171;51.812;19.514;2022-10-16T01:35:40;12.10;99.90
41427;DHT22;27171;51.812;19.514;2022-10-16T01:38:44;12.10;99.90
41427;DHT22;27171;51.812;19.514;2022-10-16T01:41:52;12.10;99.90
41427;DHT22;27171;51.812;19.514;2022-10-16T01:44:56;12.00;99.90
41427;DHT22;27171;51.812;19.514;2022-10-16T01:48:01;12.00;99.90
41427;DHT22;27171;51.812;19.514;2022-10-16T01:51:12;12.00;99.90
41427;DHT22;27171;51.812;19.514;2022-10-16T01:54:15;12.00;99.90
41427;DHT22;27171;51.812;19.514;2022-10-16T01:57:18;11.90;99.90
41427;DHT22;27171;51.812;19.514;2022-10-16T02:00:24;11.90;99.90
41427;DHT22;27171;51.812;19.514;2022-10-16T02:03:26;11.90;99.90
41427;DHT22;27171;51.812;19.514;2022-10-16T02:06:27;11.90;99.90
41427;DHT22;27171;51.812;19.514;2022-10-16T02:09:30;11.80;99.90
41427;DHT22;27171;51.812;19.514;2022-10-16T02:12:33;11.80;99.90
41427;DHT22;27171;51.812;19.514;2022-10-16T02:15:37;11.70;99.90
41427;DHT22;27171;51.812;19.514;2022-10-16T02:18:38;11.70;99.90
41427;DHT22;27171;51.812;19.514;2022-10-16T02:21:44;11.70;99.90
41427;DHT22;27171;51.812;19.514;2022-10-16T02:24:57;11.60;99.90
41427;DHT22;27171;51.812;19.514;2022-10-16T02:28:09;11.60;99.90
41427;DHT22;27171;51.812;19.514;2022-10-16T02:31:16;11.50;99.90
41427;DHT22;27171;51.812;19.514;2022-10-16T02:34:21;11.50;99.90
41427;DHT22;27171;51.812;19.514;2022-10-16T02:37:24;11.50;99.90
41427;DHT22;27171;51.812;19.514;2022-10-16T02:40:26;11.50;99.90
41427;DHT22;27171;51.812;19.514;2022-10-16T02:43:28;11.50;99.90
41427;DHT22;27171;51.812;19.514;2022-10-16T02:46:29;11.40;99.90
41427;DHT22;27171;51.812;19.514;2022-10-16T02:49:30;11.40;99.90
41427;DHT22;27171;51.812;19.514;2022-10-16T02:52:32;11.40;99.90
41427;DHT22;27171;51.812;19.514;2022-10-16T02:55:33;11.40;99.90
41427;DHT22;27171;51.812;19.514;2022-10-16T02:58:34;11.30;99.90
41427;DHT22;27171;51.812;19.514;2022-10-16T03:01:35;11.40;99.90
41427;DHT22;27171;51.812;19.514;2022-10-16T03:04:36;11.40;99.90
41427;DHT22;27171;51.812;19.514;2022-10-16T03:07:38;11.40;99.90
41427;DHT22;27171;51.812;19.514;2022-10-16T03:10:39;11.30;99.90
41427;DHT22;27171;51.812;19.514;2022-10-16T03:13:41;11.40;99.90
41427;DHT22;27171;51.812;19.514;2022-10-16T03:16:42;11.40;99.90
41427;DHT22;27171;51.812;19.514;2022-10-16T03:19:43;11.30;99.90
41427;DHT22;27171;51.812;19.514;2022-10-16T03:22:44;11.30;99.90
41427;DHT22;27171;51.812;19.514;2022-10-16T03:25:45;11.30;99.90
41427;DHT22;27171;51.812;19.514;2022-10-16T03:28:46;11.30;99.90
41427;DHT22;27171;51.812;19.514;2022-10-16T03:31:47;11.40;99.90
41427;DHT22;27171;51.812;19.514;2022-10-16T03:34:48;11.40;99.90
41427;DHT22;27171;51.812;19.514;2022-10-16T03:37:50;11.50;99.90
41427;DHT22;27171;51.812;19.514;2022-10-16T03:40:51;11.50;99.90
41427;DHT22;27171;51.812;19.514;2022-10-16T03:43:53;11.50;99.90
41427;DHT22;27171;51.812;19.514;2022-10-16T03:46:54;11.60;99.90
41427;DHT22;27171;51.812;19.514;2022-10-16T03:49:55;11.60;99.90
41427;DHT22;27171;51.812;19.514;2022-10-16T03:52:56;11.60;99.90
41427;DHT22;27171;51.812;19.514;2022-10-16T03:55:57;11.60;99.90
41427;DHT22;27171;51.812;19.514;2022-10-16T03:58:58;11.70;99.90
41427;DHT22;27171;51.812;19.514;2022-10-16T04:01:59;11.70;99.90
41427;DHT22;27171;51.812;19.514;2022-10-16T04:05:01;11.70;99.90
41427;DHT22;27171;51.812;19.514;2022-10-16T04:08:02;11.70;99.90
41427;DHT22;27171;51.812;19.514;2022-10-16T04:11:04;11.70;99.90
41427;DHT22;27171;51.812;19.514;2022-10-16T04:14:05;11.70;99.90
41427;DHT22;27171;51.812;19.514;2022-10-16T04:17:06;11.70;99.90
41427;DHT22;27171;51.812;19.514;2022-10-16T04:20:07;11.70;99.90
41427;DHT22;27171;51.812;19.514;2022-10-16T04:23:09;11.70;99.90
41427;DHT22;27171;51.812;19.514;2022-10-16T04:26:10;11.80;99.90
41427;DHT22;27171;51.812;19.514;2022-10-16T04:29:11;11.80;99.90
41427;DHT22;27171;51.812;19.514;2022-10-16T04:32:12;11.80;99.90
41427;DHT22;27171;51.812;19.514;2022-10-16T04:35:13;11.90;99.90
41427;DHT22;27171;51.812;19.514;2022-10-16T04:38:14;11.90;99.90
41427;DHT22;27171;51.812;19.514;2022-10-16T04:41:15;11.90;99.90
41427;DHT22;27171;51.812;19.514;2022-10-16T04:44:17;12.00;99.90
41427;DHT22;27171;51.812;19.514;2022-10-16T04:47:18;12.00;99.90
41427;DHT22;27171;51.812;19.514;2022-10-16T04:50:19;12.00;99.90
41427;DHT22;27171;51.812;19.514;2022-10-16T04:53:36;12.00;99.90
41427;DHT22;27171;51.812;19.514;2022-10-16T04:56:37;12.10;99.90
41427;DHT22;27171;51.812;19.514;2022-10-16T04:59:38;12.10;99.90
41427;DHT22;27171;51.812;19.514;2022-10-16T05:02:39;12.20;99.90
41427;DHT22;27171;51.812;19.514;2022-10-16T05:05:44;12.20;99.90
41427;DHT22;27171;51.812;19.514;2022-10-16T05:08:45;12.20;99.90
41427;DHT22;27171;51.812;19.514;2022-10-16T05:11:46;12.30;99.90
41427;DHT22;27171;51.812;19.514;2022-10-16T05:14:48;12.30;99.90
41427;DHT22;27171;51.812;19.514;2022-10-16T05:17:55;12.40;99.90
41427;DHT22;27171;51.812;19.514;2022-10-16T05:20:56;12.40;99.90
41427;DHT22;27171;51.812;19.514;2022-10-16T05:23:57;12.40;99.90
41427;DHT22;27171;51.812;19.514;2022-10-16T05:26:58;12.50;99.90
41427;DHT22;27171;51.812;19.514;2022-10-16T05:29:59;12.50;99.90
41427;DHT22;27171;51.812;19.514;2022-10-16T05:33:01;12.60;99.90
41427;DHT22;27171;51.812;19.514;2022-10-16T05:36:06;12.60;99.90
41427;DHT22;27171;51.812;19.514;2022-10-16T05:39:08;12.60;99.90
41427;DHT22;27171;51.812;19.514;2022-10-16T05:42:10;12.70;99.90
41427;DHT22;27171;51.812;19.514;2022-10-16T05:45:15;12.70;99.90
41427;DHT22;27171;51.812;19.514;2022-10-16T05:48:16;12.80;99.90
41427;DHT22;27171;51.812;19.514;2022-10-16T05:51:18;12.80;99.90
41427;DHT22;27171;51.812;19.514;2022-10-16T05:54:19;12.80;99.90
41427;DHT22;27171;51.812;19.514;2022-10-16T05:57:20;12.80;99.90
41427;DHT22;27171;51.812;19.514;2022-10-16T06:00:22;12.90;99.90
41427;DHT22;27171;51.812;19.514;2022-10-16T06:03:23;12.90;99.90
41427;DHT22;27171;51.812;19.514;2022-10-16T06:06:27;12.90;99.90
41427;DHT22;27171;51.812;19.514;2022-10-16T06:09:28;13.00;99.90
41427;DHT22;27171;51.812;19.514;2022-10-16T06:12:29;13.00;99.90
41427;DHT22;27171;51.812;19.514;2022-10-16T06:15:31;13.00;99.90
41427;DHT22;27171;51.812;19.514;2022-10-16T06:18:32;13.10;99.90
41427;DHT22;27171;51.812;19.514;2022-10-16T06:21:33;13.10;99.90
41427;DHT22;27171;51.812;19.514;2022-10-16T06:24:34;13.20;99.90
41427;DHT22;27171;51.812;19.514;2022-10-16T06:27:35;13.30;99.90
41427;DHT22;27171;51.812;19.514;2022-10-16T06:30:36;13.40;99.90
41427;DHT22;27171;51.812;19.514;2022-10-16T06:33:38;13.40;99.90
41427;DHT22;27171;51.812;19.514;2022-10-16T06:36:40;13.50;99.90
41427;DHT22;27171;51.812;19.514;2022-10-16T06:39:41;13.70;99.90
41427;DHT22;27171;51.812;19.514;2022-10-16T06:42:42;13.80;99.90
41427;DHT22;27171;51.812;19.514;2022-10-16T06:45:49;13.90;99.90
41427;DHT22;27171;51.812;19.514;2022-10-16T06:48:51;14.10;99.90
41427;DHT22;27171;51.812;19.514;2022-10-16T06:51:52;14.30;99.90
41427;DHT22;27171;51.812;19.514;2022-10-16T06:54:53;14.50;99.90
41427;DHT22;27171;51.812;19.514;2022-10-16T06:57:54;14.60;99.90
41427;DHT22;27171;51.812;19.514;2022-10-16T07:00:56;14.60;99.90
41427;DHT22;27171;51.812;19.514;2022-10-16T07:03:57;14.70;99.90
41427;DHT22;27171;51.812;19.514;2022-10-16T07:07:00;14.70;99.90
41427;DHT22;27171;51.812;19.514;2022-10-16T07:10:01;14.80;99.90
41427;DHT22;27171;51.812;19.514;2022-10-16T07:13:03;14.80;99.90
41427;DHT22;27171;51.812;19.514;2022-10-16T07:16:16;14.80;99.90
41427;DHT22;27171;51.812;19.514;2022-10-16T07:19:17;14.90;99.90
41427;DHT22;27171;51.812;19.514;2022-10-16T07:22:18;14.90;99.90
41427;DHT22;27171;51.812;19.514;2022-10-16T07:25:19;14.80;99.90
41427;DHT22;27171;51.812;19.514;2022-10-16T07:28:21;14.90;99.90
41427;DHT22;27171;51.812;19.514;2022-10-16T07:31:22;14.90;99.90
41427;DHT22;27171;51.812;19.514;2022-10-16T07:34:23;15.00;99.90
41427;DHT22;27171;51.812;19.514;2022-10-16T07:37:25;15.00;99.90
41427;DHT22;27171;51.812;19.514;2022-10-16T07:40:26;15.10;99.90
41427;DHT22;27171;51.812;19.514;2022-10-16T07:43:33;15.20;99.90
41427;DHT22;27171;51.812;19.514;2022-10-16T07:46:36;15.40;99.90
41427;DHT22;27171;51.812;19.514;2022-10-16T07:49:38;15.70;99.90
41427;DHT22;27171;51.812;19.514;2022-10-16T07:52:49;15.80;99.90
41427;DHT22;27171;51.812;19.514;2022-10-16T07:56:05;15.90;99.90
41427;DHT22;27171;51.812;19.514;2022-10-16T07:59:08;16.00;99.90
41427;DHT22;27171;51.812;19.514;2022-10-16T08:02:11;16.10;99.90
41427;DHT22;27171;51.812;19.514;2022-10-16T08:05:13;16.20;99.90
41427;DHT22;27171;51.812;19.514;2022-10-16T08:08:24;16.20;99.90
41427;DHT22;27171;51.812;19.514;2022-10-16T08:11:26;16.30;99.90
41427;DHT22;27171;51.812;19.514;2022-10-16T08:14:28;16.30;99.90
41427;DHT22;27171;51.812;19.514;2022-10-16T08:17:31;16.40;99.90
41427;DHT22;27171;51.812;19.514;2022-10-16T08:20:33;16.40;99.90
41427;DHT22;27171;51.812;19.514;2022-10-16T08:23:35;16.50;99.90
41427;DHT22;27171;51.812;19.514;2022-10-16T08:26:36;16.50;99.90
41427;DHT22;27171;51.812;19.514;2022-10-16T08:29:40;16.50;99.90
41427;DHT22;27171;51.812;19.514;2022-10-16T08:32:42;16.60;99.90
41427;DHT22;27171;51.812;19.514;2022-10-16T08:36:09;16.70;99.90
41427;DHT22;27171;51.812;19.514;2022-10-16T08:39:20;16.80;99.90
41427;DHT22;27171;51.812;19.514;2022-10-16T08:46:13;16.90;99.90
41427;DHT22;27171;51.812;19.514;2022-10-16T08:49:16;17.00;99.90
41427;DHT22;27171;51.812;19.514;2022-10-16T08:52:18;17.00;99.90
41427;DHT22;27171;51.812;19.514;2022-10-16T08:55:37;17.00;99.90
41427;DHT22;27171;51.812;19.514;2022-10-16T08:58:46;17.00;99.90
41427;DHT22;27171;51.812;19.514;2022-10-16T09:02:00;17.10;99.90
41427;DHT22;27171;51.812;19.514;2022-10-16T09:08:24;17.20;99.90
41427;DHT22;27171;51.812;19.514;2022-10-16T09:21:26;17.60;99.90
41427;DHT22;27171;51.812;19.514;2022-10-16T09:24:30;17.70;99.90
41427;DHT22;27171;51.812;19.514;2022-10-16T09:27:31;17.80;99.90
41427;DHT22;27171;51.812;19.514;2022-10-16T09:30:32;17.80;99.90
41427;DHT22;27171;51.812;19.514;2022-10-16T09:33:36;17.80;99.90
41427;DHT22;27171;51.812;19.514;2022-10-16T09:36:43;17.80;99.90
41427;DHT22;27171;51.812;19.514;2022-10-16T09:39:50;18.00;99.90
41427;DHT22;27171;51.812;19.514;2022-10-16T09:50:28;18.10;99.90
41427;DHT22;27171;51.812;19.514;2022-10-16T09:53:43;18.10;99.90
41427;DHT22;27171;51.812;19.514;2022-10-16T09:56:45;18.20;99.90
41427;DHT22;27171;51.812;19.514;2022-10-16T09:59:55;18.30;99.90
41427;DHT22;27171;51.812;19.514;2022-10-16T10:02:56;18.40;99.90
41427;DHT22;27171;51.812;19.514;2022-10-16T10:05:58;18.50;99.90
41427;DHT22;27171;51.812;19.514;2022-10-16T10:09:00;18.70;99.90
41427;DHT22;27171;51.812;19.514;2022-10-16T10:12:03;18.80;99.90
41427;DHT22;27171;51.812;19.514;2022-10-16T10:15:11;18.80;99.90
41427;DHT22;27171;51.812;19.514;2022-10-16T10:18:21;18.80;99.90
41427;DHT22;27171;51.812;19.514;2022-10-16T10:21:48;18.80;99.90
41427;DHT22;27171;51.812;19.514;2022-10-16T10:31:17;18.80;99.90
41427;DHT22;27171;51.812;19.514;2022-10-16T10:37:42;18.90;99.90
41427;DHT22;27171;51.812;19.514;2022-10-16T10:48:27;19.10;99.90
41427;DHT22;27171;51.812;19.514;2022-10-16T10:51:01;19.10;99.90
41427;DHT22;27171;51.812;19.514;2022-10-16T10:54:32;19.20;99.90
41427;DHT22;27171;51.812;19.514;2022-10-16T11:00:57;19.30;99.90
41427;DHT22;27171;51.812;19.514;2022-10-16T11:10:21;19.30;99.90
41427;DHT22;27171;51.812;19.514;2022-10-16T11:20:21;19.40;99.90
41427;DHT22;27171;51.812;19.514;2022-10-16T11:23:46;19.50;99.90
41427;DHT22;27171;51.812;19.514;2022-10-16T11:26:47;19.60;99.90
41427;DHT22;27171;51.812;19.514;2022-10-16T11:30:01;19.70;99.90
41427;DHT22;27171;51.812;19.514;2022-10-16T11:39:35;20.00;99.90
41427;DHT22;27171;51.812;19.514;2022-10-16T11:42:44;20.00;99.90
41427;DHT22;27171;51.812;19.514;2022-10-16T11:45:53;20.20;99.90
41427;DHT22;27171;51.812;19.514;2022-10-16T11:49:11;20.20;99.90
41427;DHT22;27171;51.812;19.514;2022-10-16T11:52:23;20.30;99.90
41427;DHT22;27171;51.812;19.514;2022-10-16T11:58:39;20.30;99.90
41427;DHT22;27171;51.812;19.514;2022-10-16T12:01:49;20.30;99.90
41427;DHT22;27171;51.812;19.514;2022-10-16T12:08:16;20.30;99.90
41427;DHT22;27171;51.812;19.514;2022-10-16T12:11:35;20.20;99.90
41427;DHT22;27171;51.812;19.514;2022-10-16T12:14:39;20.10;99.90
41427;DHT22;27171;51.812;19.514;2022-10-16T12:17:40;19.90;99.90
41427;DHT22;27171;51.812;19.514;2022-10-16T12:20:41;19.80;99.90
41427;DHT22;27171;51.812;19.514;2022-10-16T12:23:56;19.80;99.90
41427;DHT22;27171;51.812;19.514;2022-10-16T12:26:57;19.70;99.90
41427;DHT22;27171;51.812;19.514;2022-10-16T12:30:01;19.70;99.90
41427;DHT22;27171;51.812;19.514;2022-10-16T12:36:32;19.70;99.90
41427;DHT22;27171;51.812;19.514;2022-10-16T12:39:33;19.70;99.90
41427;DHT22;27171;51.812;19.514;2022-10-16T12:42:35;19.70;99.90
41427;DHT22;27171;51.812;19.514;2022-10-16T12:45:36;19.70;99.90
41427;DHT22;27171;51.812;19.514;2022-10-16T12:48:39;19.80;99.90
41427;DHT22;27171;51.812;19.514;2022-10-16T12:51:42;19.90;99.90
41427;DHT22;27171;51.812;19.514;2022-10-16T12:54:43;19.90;99.90
41427;DHT22;27171;51.812;19.514;2022-10-16T13:01:01;20.00;99.90
41427;DHT22;27171;51.812;19.514;2022-10-16T13:10:46;20.00;99.90
41427;DHT22;27171;51.812;19.514;2022-10-16T13:17:52;20.00;99.90
41427;DHT22;27171;51.812;19.514;2022-10-16T13:30:27;19.90;99.90
41427;DHT22;27171;51.812;19.514;2022-10-16T13:33:41;19.80;99.90
41427;DHT22;27171;51.812;19.514;2022-10-16T13:36:49;19.70;99.90
41427;DHT22;27171;51.812;19.514;2022-10-16T13:39:50;19.70;99.90
41427;DHT22;27171;51.812;19.514;2022-10-16T13:42:53;19.60;99.90
41427;DHT22;27171;51.812;19.514;2022-10-16T13:46:03;19.60;99.90
41427;DHT22;27171;51.812;19.514;2022-10-16T13:49:16;19.60;99.90
41427;DHT22;27171;51.812;19.514;2022-10-16T13:52:19;19.60;99.90
41427;DHT22;27171;51.812;19.514;2022-10-16T13:55:21;19.60;99.90
41427;DHT22;27171;51.812;19.514;2022-10-16T13:58:22;19.60;99.90
41427;DHT22;27171;51.812;19.514;2022-10-16T14:01:27;19.60;99.90
41427;DHT22;27171;51.812;19.514;2022-10-16T14:04:32;19.50;99.90
41427;DHT22;27171;51.812;19.514;2022-10-16T14:07:34;19.50;99.90
41427;DHT22;27171;51.812;19.514;2022-10-16T14:10:35;19.40;99.90
41427;DHT22;27171;51.812;19.514;2022-10-16T14:13:43;19.30;99.90
41427;DHT22;27171;51.812;19.514;2022-10-16T14:16:45;19.30;99.90
41427;DHT22;27171;51.812;19.514;2022-10-16T14:19:48;19.20;99.90
41427;DHT22;27171;51.812;19.514;2022-10-16T14:23:20;19.10;99.90
41427;DHT22;27171;51.812;19.514;2022-10-16T14:26:22;19.10;99.90
41427;DHT22;27171;51.812;19.514;2022-10-16T14:29:25;19.10;99.90
41427;DHT22;27171;51.812;19.514;2022-10-16T14:32:28;19.00;99.90
41427;DHT22;27171;51.812;19.514;2022-10-16T14:35:37;19.00;99.90
41427;DHT22;27171;51.812;19.514;2022-10-16T14:38:41;19.00;99.90
41427;DHT22;27171;51.812;19.514;2022-10-16T14:41:48;19.00;99.90
41427;DHT22;27171;51.812;19.514;2022-10-16T14:44:50;18.90;99.90
41427;DHT22;27171;51.812;19.514;2022-10-16T14:48:03;18.90;99.90
41427;DHT22;27171;51.812;19.514;2022-10-16T14:51:08;18.80;99.90
41427;DHT22;27171;51.812;19.514;2022-10-16T14:54:12;18.80;99.90
41427;DHT22;27171;51.812;19.514;2022-10-16T14:57:22;18.80;99.90
41427;DHT22;27171;51.812;19.514;2022-10-16T15:00:24;18.80;99.90
41427;DHT22;27171;51.812;19.514;2022-10-16T15:03:26;18.70;99.90
41427;DHT22;27171;51.812;19.514;2022-10-16T15:06:28;18.70;99.90
41427;DHT22;27171;51.812;19.514;2022-10-16T15:09:29;18.60;99.90
41427;DHT22;27171;51.812;19.514;2022-10-16T15:12:30;18.60;99.90
41427;DHT22;27171;51.812;19.514;2022-10-16T15:15:45;18.50;99.90
41427;DHT22;27171;51.812;19.514;2022-10-16T15:18:47;18.50;99.90
41427;DHT22;27171;51.812;19.514;2022-10-16T15:21:48;18.50;99.90
41427;DHT22;27171;51.812;19.514;2022-10-16T15:24:49;18.40;99.90
41427;DHT22;27171;51.812;19.514;2022-10-16T15:27:50;18.30;99.90
41427;DHT22;27171;51.812;19.514;2022-10-16T15:30:56;18.30;99.90
41427;DHT22;27171;51.812;19.514;2022-10-16T15:33:57;18.20;99.90
41427;DHT22;27171;51.812;19.514;2022-10-16T15:37:03;18.20;99.90
41427;DHT22;27171;51.812;19.514;2022-10-16T15:40:05;18.10;99.90
41427;DHT22;27171;51.812;19.514;2022-10-16T15:43:06;18.10;99.90
41427;DHT22;27171;51.812;19.514;2022-10-16T15:46:12;18.00;99.90
41427;DHT22;27171;51.812;19.514;2022-10-16T15:49:14;18.00;99.90
41427;DHT22;27171;51.812;19.514;2022-10-16T15:52:15;18.00;99.90
41427;DHT22;27171;51.812;19.514;2022-10-16T15:55:17;17.90;99.90
41427;DHT22;27171;51.812;19.514;2022-10-16T15:58:18;17.80;99.90
41427;DHT22;27171;51.812;19.514;2022-10-16T16:01:20;17.70;99.90
41427;DHT22;27171;51.812;19.514;2022-10-16T16:04:21;17.70;99.90
41427;DHT22;27171;51.812;19.514;2022-10-16T16:07:22;17.60;99.90
41427;DHT22;27171;51.812;19.514;2022-10-16T16:10:23;17.50;99.90
41427;DHT22;27171;51.812;19.514;2022-10-16T16:13:24;17.40;99.90
41427;DHT22;27171;51.812;19.514;2022-10-16T16:16:25;17.40;99.90
41427;DHT22;27171;51.812;19.514;2022-10-16T16:19:27;17.30;99.90
41427;DHT22;27171;51.812;19.514;2022-10-16T16:22:28;17.30;99.90
41427;DHT22;27171;51.812;19.514;2022-10-16T16:25:29;17.20;99.90
41427;DHT22;27171;51.812;19.514;2022-10-16T16:28:30;17.10;99.90
41427;DHT22;27171;51.812;19.514;2022-10-16T16:31:32;17.10;99.90
41427;DHT22;27171;51.812;19.514;2022-10-16T16:34:33;17.00;99.90
41427;DHT22;27171;51.812;19.514;2022-10-16T16:37:35;17.00;99.90
41427;DHT22;27171;51.812;19.514;2022-10-16T16:40:36;17.00;99.90
41427;DHT22;27171;51.812;19.514;2022-10-16T16:43:37;16.90;99.90
41427;DHT22;27171;51.812;19.514;2022-10-16T16:46:38;16.90;99.90
41427;DHT22;27171;51.812;19.514;2022-10-16T16:49:40;16.90;99.90
41427;DHT22;27171;51.812;19.514;2022-10-16T16:52:41;16.80;99.90
41427;DHT22;27171;51.812;19.514;2022-10-16T16:55:42;16.80;99.90
41427;DHT22;27171;51.812;19.514;2022-10-16T16:58:47;16.80;99.90
41427;DHT22;27171;51.812;19.514;2022-10-16T17:01:49;16.80;99.90
41427;DHT22;27171;51.812;19.514;2022-10-16T17:04:50;16.70;99.90
41427;DHT22;27171;51.812;19.514;2022-10-16T17:07:51;16.70;99.90
41427;DHT22;27171;51.812;19.514;2022-10-16T17:10:53;16.70;99.90
41427;DHT22;27171;51.812;19.514;2022-10-16T17:13:55;16.70;99.90
41427;DHT22;27171;51.812;19.514;2022-10-16T17:16:58;16.70;99.90
41427;DHT22;27171;51.812;19.514;2022-10-16T17:20:02;16.70;99.90
41427;DHT22;27171;51.812;19.514;2022-10-16T17:23:03;16.70;99.90
41427;DHT22;27171;51.812;19.514;2022-10-16T17:26:10;16.70;99.90
41427;DHT22;27171;51.812;19.514;2022-10-16T17:29:11;16.60;99.90
41427;DHT22;27171;51.812;19.514;2022-10-16T17:32:13;16.60;99.90
41427;DHT22;27171;51.812;19.514;2022-10-16T17:35:14;16.60;99.90
41427;DHT22;27171;51.812;19.514;2022-10-16T17:38:15;16.50;99.90
41427;DHT22;27171;51.812;19.514;2022-10-16T17:41:19;16.50;99.90
41427;DHT22;27171;51.812;19.514;2022-10-16T17:44:20;16.50;99.90
41427;DHT22;27171;51.812;19.514;2022-10-16T17:47:22;16.50;99.90
41427;DHT22;27171;51.812;19.514;2022-10-16T17:50:23;16.50;99.90
41427;DHT22;27171;51.812;19.514;2022-10-16T17:53:24;16.50;99.90
41427;DHT22;27171;51.812;19.514;2022-10-16T17:56:26;16.40;99.90
41427;DHT22;27171;51.812;19.514;2022-10-16T17:59:28;16.40;99.90
41427;DHT22;27171;51.812;19.514;2022-10-16T18:02:29;16.30;99.90
41427;DHT22;27171;51.812;19.514;2022-10-16T18:05:30;16.20;99.90
41427;DHT22;27171;51.812;19.514;2022-10-16T18:08:32;16.20;99.90
41427;DHT22;27171;51.812;19.514;2022-10-16T18:11:33;16.10;99.90
41427;DHT22;27171;51.812;19.514;2022-10-16T18:14:34;16.10;99.90
41427;DHT22;27171;51.812;19.514;2022-10-16T18:17:36;16.00;99.90
41427;DHT22;27171;51.812;19.514;2022-10-16T18:20:37;16.00;99.90
41427;DHT22;27171;51.812;19.514;2022-10-16T18:23:39;15.90;99.90
41427;DHT22;27171;51.812;19.514;2022-10-16T18:26:41;15.90;99.90
41427;DHT22;27171;51.812;19.514;2022-10-16T18:29:42;15.80;99.90
41427;DHT22;27171;51.812;19.514;2022-10-16T18:32:44;15.80;99.90
41427;DHT22;27171;51.812;19.514;2022-10-16T18:35:46;15.70;99.90
41427;DHT22;27171;51.812;19.514;2022-10-16T18:38:48;15.70;99.90
41427;DHT22;27171;51.812;19.514;2022-10-16T18:41:51;15.70;99.90
41427;DHT22;27171;51.812;19.514;2022-10-16T18:44:52;15.60;99.90
41427;DHT22;27171;51.812;19.514;2022-10-16T18:47:55;15.60;99.90
41427;DHT22;27171;51.812;19.514;2022-10-16T18:54:24;15.50;99.90
41427;DHT22;27171;51.812;19.514;2022-10-16T18:57:29;15.40;99.90
41427;DHT22;27171;51.812;19.514;2022-10-16T19:00:33;15.40;99.90
41427;DHT22;27171;51.812;19.514;2022-10-16T19:03:35;15.40;99.90
41427;DHT22;27171;51.812;19.514;2022-10-16T19:06:43;15.40;99.90
41427;DHT22;27171;51.812;19.514;2022-10-16T19:09:44;15.30;99.90
41427;DHT22;27171;51.812;19.514;2022-10-16T19:12:45;15.30;99.90
41427;DHT22;27171;51.812;19.514;2022-10-16T19:15:47;15.30;99.90
41427;DHT22;27171;51.812;19.514;2022-10-16T19:18:49;15.30;99.90
41427;DHT22;27171;51.812;19.514;2022-10-16T19:21:50;15.20;99.90
41427;DHT22;27171;51.812;19.514;2022-10-16T19:24:52;15.20;99.90
41427;DHT22;27171;51.812;19.514;2022-10-16T19:27:54;15.20;99.90
41427;DHT22;27171;51.812;19.514;2022-10-16T19:30:55;15.20;99.90
41427;DHT22;27171;51.812;19.514;2022-10-16T19:33:58;15.10;99.90
41427;DHT22;27171;51.812;19.514;2022-10-16T19:37:00;15.10;99.90
41427;DHT22;27171;51.812;19.514;2022-10-16T19:40:01;15.00;99.90
41427;DHT22;27171;51.812;19.514;2022-10-16T19:43:03;15.00;99.90
41427;DHT22;27171;51.812;19.514;2022-10-16T19:46:10;14.90;99.90
41427;DHT22;27171;51.812;19.514;2022-10-16T19:49:14;14.90;99.90
41427;DHT22;27171;51.812;19.514;2022-10-16T19:52:16;14.80;99.90
41427;DHT22;27171;51.812;19.514;2022-10-16T19:55:17;14.70;99.90
41427;DHT22;27171;51.812;19.514;2022-10-16T19:58:18;14.70;99.90
41427;DHT22;27171;51.812;19.514;2022-10-16T20:01:20;14.60;99.90
41427;DHT22;27171;51.812;19.514;2022-10-16T20:04:21;14.60;99.90
41427;DHT22;27171;51.812;19.514;2022-10-16T20:07:23;14.50;99.90
41427;DHT22;27171;51.812;19.514;2022-10-16T20:10:24;14.50;99.90
41427;DHT22;27171;51.812;19.514;2022-10-16T20:13:25;14.40;99.90
41427;DHT22;27171;51.812;19.514;2022-10-16T20:16:28;14.30;99.90
41427;DHT22;27171;51.812;19.514;2022-10-16T20:19:29;14.30;99.90
41427;DHT22;27171;51.812;19.514;2022-10-16T20:22:30;14.30;99.90
41427;DHT22;27171;51.812;19.514;2022-10-16T20:25:36;14.30;99.90
41427;DHT22;27171;51.812;19.514;2022-10-16T20:28:41;14.30;99.90
41427;DHT22;27171;51.812;19.514;2022-10-16T20:31:43;14.30;99.90
41427;DHT22;27171;51.812;19.514;2022-10-16T20:34:45;14.30;99.90
41427;DHT22;27171;51.812;19.514;2022-10-16T20:37:46;14.40;99.90
41427;DHT22;27171;51.812;19.514;2022-10-16T20:40:47;14.40;99.90
41427;DHT22;27171;51.812;19.514;2022-10-16T20:43:49;14.40;99.90
41427;DHT22;27171;51.812;19.514;2022-10-16T20:46:53;14.50;99.90
41427;DHT22;27171;51.812;19.514;2022-10-16T20:49:54;14.50;99.90
41427;DHT22;27171;51.812;19.514;2022-10-16T20:52:57;14.60;99.90
41427;DHT22;27171;51.812;19.514;2022-10-16T20:56:00;14.60;99.90
41427;DHT22;27171;51.812;19.514;2022-10-16T20:59:03;14.70;99.90